Neumagen-Dhron Airport EDRD

Flugplatz Daten

Name: Neumagen-Dhron Airport

Ident: EDRD

Lat: 49,84305573

Long: 6,916110992

Platzhöhe: 879 ft

IataCode:

City: Neumagen

Metar

2022/07/21 08:00
LRCK 210800Z 01015KT CAVOK 28/11 Q1015 REDRDU NOSIG

Taf

Gewünschte Webcam nicht vorhanden? Dann fügen Sie eine hinzu. Sie wird dann so schnell wie möglich freigeschaltet
Url: Title: